createdAt,value
2018-06-01T00:00:51.671Z,17.48
2018-06-01T00:01:51.697Z,17.48
2018-06-01T00:02:51.725Z,17.48
2018-06-01T00:03:51.752Z,17.39
2018-06-01T00:04:51.778Z,17.58
2018-06-01T00:05:51.805Z,17.58
2018-06-01T00:06:51.832Z,17.58
2018-06-01T00:07:51.860Z,17.58
2018-06-01T00:08:51.902Z,17.58
2018-06-01T00:09:51.915Z,17.48
2018-06-01T00:10:51.940Z,17.48
2018-06-01T00:11:51.967Z,17.58
2018-06-01T00:12:52.028Z,17.48
2018-06-01T00:13:52.021Z,17.48
2018-06-01T00:14:52.066Z,17.58
2018-06-01T00:15:52.075Z,17.58
2018-06-01T00:16:52.103Z,17.58
2018-06-01T00:17:52.129Z,17.48
2018-06-01T00:18:52.156Z,17.48
2018-06-01T00:19:52.184Z,17.48
2018-06-01T00:20:52.210Z,17.58
2018-06-01T00:21:52.237Z,17.58
2018-06-01T00:22:52.264Z,17.58
2018-06-01T00:23:52.291Z,17.58
2018-06-01T00:24:52.318Z,17.58
2018-06-01T00:25:52.345Z,17.39
2018-06-01T00:26:52.372Z,17.58
2018-06-01T00:27:52.399Z,17.48
2018-06-01T00:28:52.431Z,17.68
2018-06-01T00:29:52.453Z,17.87
2018-06-01T00:30:52.480Z,17.77
2018-06-01T00:31:52.509Z,17.58
2018-06-01T00:32:52.535Z,17.77
2018-06-01T00:33:52.561Z,17.87
2018-06-01T00:34:52.588Z,17.68
2018-06-01T00:35:52.623Z,17.68
2018-06-01T00:36:52.643Z,17.48
2018-06-01T00:37:52.668Z,17.68
2018-06-01T00:38:52.697Z,17.68
2018-06-01T00:39:52.729Z,17.48
2018-06-01T00:40:52.750Z,17.77
2018-06-01T00:41:52.800Z,17.29
2018-06-01T00:42:52.810Z,17.87
2018-06-01T00:43:52.833Z,17.68
2018-06-01T00:44:52.859Z,17.68
2018-06-01T00:45:52.885Z,17.68
2018-06-01T00:46:52.912Z,17.58
2018-06-01T00:47:52.939Z,17.58
2018-06-01T00:48:52.966Z,17.77
2018-06-01T00:49:52.995Z,17.58
2018-06-01T00:50:53.021Z,17.48
2018-06-01T00:51:53.047Z,17.58
2018-06-01T00:52:53.075Z,17.48
2018-06-01T00:53:53.109Z,17.58
2018-06-01T00:54:53.127Z,17.58
2018-06-01T00:55:53.155Z,17.58
2018-06-01T00:56:53.182Z,17.87
2018-06-01T00:57:53.209Z,17.87
2018-06-01T00:58:53.236Z,17.77
2018-06-01T00:59:53.263Z,17.87
2018-06-01T01:00:53.290Z,17.87
2018-06-01T01:01:53.337Z,17.87
2018-06-01T01:02:53.344Z,17.87
2018-06-01T01:03:53.371Z,17.77
2018-06-01T01:04:53.400Z,17.77
2018-06-01T01:05:53.426Z,17.87
2018-06-01T01:06:53.486Z,17.87
2018-06-01T01:07:53.483Z,17.97
2018-06-01T01:08:53.508Z,17.97
2018-06-01T01:09:53.535Z,17.87
2018-06-01T01:10:53.559Z,17.87
2018-06-01T01:11:53.587Z,17.97
2018-06-01T01:12:53.614Z,17.77
2018-06-01T01:13:53.641Z,17.97
2018-06-01T01:14:53.711Z,17.87
2018-06-01T01:15:53.695Z,17.68
2018-06-01T01:16:53.724Z,17.87
2018-06-01T01:17:53.750Z,17.97
2018-06-01T01:18:53.776Z,17.97
2018-06-01T01:19:53.807Z,17.97
2018-06-01T01:20:53.829Z,17.87
2018-06-01T01:21:53.857Z,17.87
2018-06-01T01:22:53.885Z,18.06
2018-06-01T01:23:53.947Z,17.58
2018-06-01T01:24:53.937Z,17.97
2018-06-01T01:25:53.966Z,17.87
2018-06-01T01:26:53.990Z,17.97
2018-06-01T01:27:54.017Z,17.97
2018-06-01T01:28:54.070Z,17.97
2018-06-01T01:29:54.074Z,17.87
2018-06-01T01:30:54.098Z,17.87
2018-06-01T01:31:54.126Z,17.87
2018-06-01T01:32:54.187Z,17.87
2018-06-01T01:33:54.179Z,17.58
2018-06-01T01:34:54.206Z,17.58
2018-06-01T01:35:54.234Z,17.58
2018-06-01T01:36:54.260Z,17.58
2018-06-01T01:37:54.286Z,17.68
2018-06-01T01:38:54.314Z,17.58
2018-06-01T01:39:54.342Z,17.58
2018-06-01T01:40:54.369Z,17.48
2018-06-01T01:41:54.398Z,17.59
2018-06-01T01:42:54.422Z,17.49
2018-06-01T01:43:54.449Z,17.48
2018-06-01T01:44:54.476Z,17.58
2018-06-01T01:45:54.502Z,17.20
2018-06-01T01:46:54.530Z,17.10
2018-06-01T01:47:54.557Z,17.20
2018-06-01T01:48:54.585Z,17.20
2018-06-01T01:49:54.612Z,17.20
2018-06-01T01:50:54.678Z,17.49
2018-06-01T01:51:54.665Z,17.40
2018-06-01T01:52:54.693Z,17.10
2018-06-01T01:53:54.720Z,17.20
2018-06-01T01:54:54.747Z,17.20
2018-06-01T01:55:54.774Z,17.40
2018-06-01T01:56:54.802Z,17.30
2018-06-01T01:57:54.829Z,17.20
2018-06-01T01:58:54.855Z,17.10
2018-06-01T01:59:54.886Z,17.20
2018-06-01T02:00:54.917Z,17.49
2018-06-01T02:01:54.940Z,17.40
2018-06-01T02:02:54.965Z,17.40
2018-06-01T02:03:54.992Z,17.40
2018-06-01T02:04:55.019Z,17.40
2018-06-01T02:05:55.046Z,17.49
2018-06-01T02:06:55.073Z,17.49
2018-06-01T02:07:55.102Z,17.20
2018-06-01T02:08:55.129Z,17.30
2018-06-01T02:09:55.154Z,17.40
2018-06-01T02:10:55.182Z,17.59
2018-06-01T02:11:55.209Z,17.40
2018-06-01T02:12:55.236Z,17.40
2018-06-01T02:13:55.264Z,17.59
2018-06-01T02:14:55.305Z,17.59
2018-06-01T02:15:55.317Z,17.78
2018-06-01T02:16:55.345Z,17.78
2018-06-01T02:17:55.372Z,17.78
2018-06-01T02:18:55.398Z,17.59
2018-06-01T02:19:55.427Z,17.49
2018-06-01T02:20:55.453Z,17.68
2018-06-01T02:21:55.480Z,17.68
2018-06-01T02:22:55.507Z,17.78
2018-06-01T02:23:55.540Z,17.59
2018-06-01T02:24:55.565Z,17.59
2018-06-01T02:25:55.589Z,17.59
2018-06-01T02:26:55.616Z,17.40
2018-06-01T02:27:55.644Z,17.88
2018-06-01T02:28:55.672Z,17.59
2018-06-01T02:29:55.697Z,17.79
2018-06-01T02:30:55.725Z,17.59
2018-06-01T02:31:55.752Z,17.78
2018-06-01T02:32:55.781Z,17.69
2018-06-01T02:33:55.806Z,17.68
2018-06-01T02:34:55.834Z,17.79
2018-06-01T02:35:55.861Z,17.60
2018-06-01T02:36:55.889Z,17.69
2018-06-01T02:37:55.915Z,17.69
2018-06-01T02:38:55.943Z,17.50
2018-06-01T02:39:55.970Z,17.50
2018-06-01T02:40:55.999Z,17.60
2018-06-01T02:41:56.024Z,17.60
2018-06-01T02:42:56.052Z,17.60
2018-06-01T02:43:56.081Z,17.40
2018-06-01T02:44:56.109Z,17.21
2018-06-01T02:45:56.136Z,17.21
2018-06-01T02:46:56.160Z,17.21
2018-06-01T02:47:56.191Z,17.21
2018-06-01T02:48:56.216Z,17.31
2018-06-01T02:49:56.242Z,17.40
2018-06-01T02:50:56.279Z,17.32
2018-06-01T02:51:56.299Z,17.51
2018-06-01T02:52:56.326Z,17.12
2018-06-01T02:53:56.351Z,17.12
2018-06-01T02:54:56.380Z,17.12
2018-06-01T02:55:56.406Z,17.12
2018-06-01T02:56:56.439Z,17.22
2018-06-01T02:57:56.499Z,17.22
2018-06-01T02:58:56.489Z,17.32
2018-06-01T02:59:56.515Z,17.22
2018-06-01T03:00:56.544Z,16.84
2018-06-01T03:01:56.571Z,16.93
2018-06-01T03:02:56.597Z,16.74
2018-06-01T03:03:56.633Z,16.84
2018-06-01T03:04:56.653Z,16.64
2018-06-01T03:05:56.680Z,16.64
2018-06-01T03:06:56.713Z,16.84
2018-06-01T03:07:56.736Z,16.64
2018-06-01T03:08:56.763Z,16.74
2018-06-01T03:09:56.789Z,16.74
2018-06-01T03:10:56.817Z,16.55
2018-06-01T03:11:56.848Z,16.74
2018-06-01T03:12:56.875Z,16.55
2018-06-01T03:13:56.924Z,16.74
2018-06-01T03:14:56.928Z,16.55
2018-06-01T03:15:56.954Z,16.64
2018-06-01T03:16:56.982Z,16.84
2018-06-01T03:17:57.012Z,16.84
2018-06-01T03:18:57.038Z,16.64
2018-06-01T03:19:57.063Z,16.74
2018-06-01T03:20:57.091Z,16.64
2018-06-01T03:21:57.118Z,16.74
2018-06-01T03:22:57.155Z,16.74
2018-06-01T03:23:57.173Z,16.64
2018-06-01T03:24:57.231Z,16.84
2018-06-01T03:25:57.231Z,16.94
2018-06-01T03:26:57.256Z,17.22
2018-06-01T03:27:57.309Z,16.84
2018-06-01T03:28:57.311Z,16.84
2018-06-01T03:29:57.336Z,17.03
2018-06-01T03:30:57.368Z,17.03
2018-06-01T03:31:57.393Z,16.84
2018-06-01T03:32:57.420Z,17.22
2018-06-01T03:33:57.447Z,17.32
2018-06-01T03:34:57.475Z,17.22
2018-06-01T03:35:57.503Z,17.22
2018-06-01T03:36:57.533Z,17.32
2018-06-01T03:37:57.558Z,17.22
2018-06-01T03:38:57.585Z,16.94
2018-06-01T03:39:57.615Z,17.22
2018-06-01T03:40:57.640Z,17.13
2018-06-01T03:41:57.666Z,16.94
2018-06-01T03:42:57.694Z,17.03
2018-06-01T03:43:57.722Z,17.22
2018-06-01T03:44:57.750Z,17.13
2018-06-01T03:45:57.776Z,17.32
2018-06-01T03:46:57.805Z,17.32
2018-06-01T03:47:57.836Z,17.22
2018-06-01T03:48:57.873Z,17.22
2018-06-01T03:49:57.886Z,17.22
2018-06-01T03:50:57.915Z,17.13
2018-06-01T03:51:57.945Z,17.13
2018-06-01T03:52:57.975Z,17.13
2018-06-01T03:53:57.997Z,17.52
2018-06-01T03:54:58.047Z,17.52
2018-06-01T03:55:58.065Z,17.52
2018-06-01T03:56:58.086Z,17.42
2018-06-01T03:57:58.105Z,17.52
2018-06-01T03:58:58.136Z,17.52
2018-06-01T03:59:58.161Z,17.52
2018-06-01T04:00:58.191Z,17.42
2018-06-01T04:01:58.216Z,17.52
2018-06-01T04:02:58.319Z,17.52
2018-06-01T04:03:58.299Z,17.52
2018-06-01T04:04:58.299Z,17.52
2018-06-01T04:05:58.325Z,17.42
2018-06-01T04:06:58.353Z,17.61
2018-06-01T04:07:58.380Z,17.52
2018-06-01T04:08:58.409Z,17.32
2018-06-01T04:09:58.437Z,17.22
2018-06-01T04:10:58.463Z,17.13
2018-06-01T04:11:58.493Z,17.13
2018-06-01T04:12:58.519Z,17.52
2018-06-01T04:13:58.545Z,17.13
2018-06-01T04:14:58.573Z,17.42
2018-06-01T04:15:58.600Z,17.52
2018-06-01T04:16:58.629Z,17.61
2018-06-01T04:17:58.654Z,17.52
2018-06-01T04:18:58.682Z,17.13
2018-06-01T04:19:58.711Z,17.22
2018-06-01T04:20:58.737Z,17.22
2018-06-01T04:21:58.769Z,17.13
2018-06-01T04:22:58.820Z,17.13
2018-06-01T04:23:58.824Z,17.61
2018-06-01T04:24:58.847Z,17.22
2018-06-01T04:25:58.874Z,17.13
2018-06-01T04:26:58.903Z,17.61
2018-06-01T04:27:58.933Z,17.13
2018-06-01T04:28:58.957Z,17.42
2018-06-01T04:29:58.983Z,17.03
2018-06-01T04:30:59.012Z,17.52
2018-06-01T04:31:59.042Z,17.52
2018-06-01T04:32:59.067Z,17.52
2018-06-01T04:33:59.093Z,17.52
2018-06-01T04:34:59.121Z,17.13
2018-06-01T04:35:59.149Z,17.52
2018-06-01T04:36:59.177Z,17.61
2018-06-01T04:37:59.203Z,17.22
2018-06-01T04:38:59.231Z,17.03
2018-06-01T04:39:59.259Z,17.13
2018-06-01T04:40:59.287Z,17.03
2018-06-01T04:41:59.313Z,17.03
2018-06-01T04:42:59.342Z,17.03
2018-06-01T04:43:59.368Z,17.13
2018-06-01T04:44:59.396Z,17.13
2018-06-01T04:46:06.152Z,17.03
2018-06-01T04:48:52.128Z,17.13
2018-06-01T04:50:39.521Z,17.13
2018-06-01T04:57:44.654Z,17.42
2018-06-01T05:01:29.485Z,17.03
2018-06-01T05:06:48.630Z,16.74
2018-06-01T05:07:48.629Z,16.74
2018-06-01T05:16:06.031Z,16.74
2018-06-01T05:21:31.308Z,16.64
2018-06-01T05:24:51.143Z,16.84
2018-06-01T05:27:18.590Z,17.03
2018-06-01T05:30:50.683Z,17.13
2018-06-01T05:33:09.429Z,17.22
2018-06-01T05:39:12.158Z,17.32
2018-06-01T05:54:48.978Z,17.22
2018-06-01T05:57:02.160Z,17.13
2018-06-01T06:03:01.251Z,17.22
2018-06-01T06:11:04.858Z,17.42
2018-06-01T06:14:45.643Z,17.42
2018-06-01T06:15:45.071Z,17.32
2018-06-01T06:17:38.915Z,17.32
2018-06-01T06:26:43.070Z,17.22
2018-06-01T06:27:45.071Z,17.13
2018-06-01T06:31:42.684Z,17.42
2018-06-01T06:32:35.775Z,17.22
2018-06-01T06:36:09.508Z,17.61
2018-06-01T06:37:02.655Z,17.61
2018-06-01T06:38:55.553Z,17.60
2018-06-01T06:39:55.567Z,17.60
2018-06-01T06:41:48.479Z,17.51
2018-06-01T06:42:48.480Z,17.60
2018-06-01T06:44:41.390Z,17.80
2018-06-01T06:45:41.939Z,17.60
2018-06-01T06:47:34.306Z,17.51
2018-06-01T06:48:34.302Z,17.60
2018-06-01T06:51:07.173Z,17.60
2018-06-01T06:52:07.177Z,17.51
2018-06-01T06:54:27.314Z,17.32
2018-06-01T06:55:27.291Z,17.22
2018-06-01T06:57:20.185Z,17.22
2018-06-01T06:58:20.205Z,17.32
2018-06-01T07:00:13.213Z,17.32
2018-06-01T07:01:13.152Z,17.22
2018-06-01T07:02:13.182Z,17.42
2018-06-01T07:03:13.211Z,17.42
2018-06-01T07:04:13.234Z,17.42
2018-06-01T07:05:13.266Z,17.32
2018-06-01T07:06:13.292Z,17.42
2018-06-01T07:07:13.319Z,17.42
2018-06-01T07:08:13.381Z,17.22
2018-06-01T07:09:13.373Z,17.42
2018-06-01T07:10:13.399Z,17.52
2018-06-01T07:11:13.429Z,17.52
2018-06-01T07:12:13.454Z,17.52
2018-06-01T07:13:13.481Z,17.22
2018-06-01T07:14:13.507Z,17.52
2018-06-01T07:15:13.577Z,17.13
2018-06-01T07:16:13.571Z,17.61
2018-06-01T07:17:13.598Z,17.42
2018-06-01T07:18:13.624Z,17.22
2018-06-01T07:19:13.682Z,17.22
2018-06-01T07:20:13.672Z,17.42
2018-06-01T07:21:13.701Z,17.32
2018-06-01T07:22:13.728Z,17.32
2018-06-01T07:23:13.756Z,17.32
2018-06-01T07:24:13.790Z,17.32
2018-06-01T07:25:13.810Z,17.42
2018-06-01T07:26:13.837Z,17.42
2018-06-01T07:27:13.869Z,17.52
2018-06-01T07:28:13.893Z,17.32
2018-06-01T07:29:13.921Z,17.32
2018-06-01T07:30:13.979Z,17.32
2018-06-01T07:31:13.976Z,17.32
2018-06-01T07:32:14.002Z,17.32
2018-06-01T07:33:14.091Z,17.42
2018-06-01T07:34:14.059Z,17.32
2018-06-01T07:35:14.096Z,17.32
2018-06-01T07:36:14.113Z,17.32
2018-06-01T07:37:14.140Z,17.33
2018-06-01T07:38:14.172Z,17.33
2018-06-01T07:39:14.198Z,17.22
2018-06-01T07:40:14.222Z,17.22
2018-06-01T07:41:14.256Z,17.42
2018-06-01T07:42:14.278Z,17.52
2018-06-01T07:43:14.306Z,17.42
2018-06-01T07:44:14.330Z,17.42
2018-06-01T07:45:14.358Z,17.61
2018-06-01T07:46:14.387Z,17.52
2018-06-01T07:47:14.415Z,17.42
2018-06-01T07:48:14.442Z,17.43
2018-06-01T07:49:14.468Z,17.61
2018-06-01T07:50:14.497Z,17.52
2018-06-01T07:51:14.525Z,17.61
2018-06-01T07:52:14.550Z,17.61
2018-06-01T07:53:14.579Z,17.90
2018-06-01T07:54:14.614Z,17.90
2018-06-01T07:55:14.633Z,17.81
2018-06-01T07:56:14.660Z,17.61
2018-06-01T07:57:14.688Z,17.62
2018-06-01T07:58:14.716Z,17.52
2018-06-01T07:59:14.775Z,17.81
2018-06-01T08:00:14.775Z,17.61
2018-06-01T08:01:14.798Z,17.81
2018-06-01T08:02:14.842Z,17.52
2018-06-01T08:03:14.854Z,17.61
2018-06-01T08:04:14.904Z,17.61
2018-06-01T08:05:14.908Z,17.61
2018-06-01T08:06:14.938Z,17.61
2018-06-01T08:07:14.964Z,17.61
2018-06-01T08:08:14.991Z,17.71
2018-06-01T08:09:15.073Z,17.61
2018-06-01T08:10:15.049Z,17.61
2018-06-01T08:11:15.073Z,17.61
2018-06-01T08:12:15.106Z,17.91
2018-06-01T08:13:15.129Z,17.61
2018-06-01T08:14:15.157Z,17.61
2018-06-01T08:15:15.184Z,17.61
2018-06-01T08:16:15.211Z,17.71
2018-06-01T08:17:15.238Z,17.61
2018-06-01T08:18:15.265Z,17.71
2018-06-01T08:19:15.293Z,17.61
2018-06-01T08:20:15.359Z,17.71
2018-06-01T08:21:15.348Z,17.90
2018-06-01T08:22:15.376Z,17.61
2018-06-01T08:23:15.453Z,17.61
2018-06-01T08:24:15.431Z,17.61
2018-06-01T08:25:15.458Z,17.82
2018-06-01T08:26:15.490Z,17.52
2018-06-01T08:27:15.515Z,17.52
2018-06-01T08:28:15.548Z,17.62
2018-06-01T08:29:15.568Z,17.52
2018-06-01T08:30:15.597Z,17.62
2018-06-01T08:31:15.623Z,17.52
2018-06-01T08:32:15.682Z,17.52
2018-06-01T08:33:15.679Z,17.62
2018-06-01T08:34:15.706Z,17.52
2018-06-01T08:35:15.737Z,17.62
2018-06-01T08:36:15.760Z,17.52
2018-06-01T08:37:15.788Z,17.52
2018-06-01T08:38:15.817Z,17.52
2018-06-01T08:39:15.845Z,17.52
2018-06-01T08:40:15.870Z,17.62
2018-06-01T08:41:15.899Z,17.62
2018-06-01T08:42:15.926Z,17.62
2018-06-01T08:43:15.954Z,17.52
2018-06-01T08:44:16.037Z,17.52
2018-06-01T08:45:16.008Z,17.62
2018-06-01T08:46:16.041Z,17.61
2018-06-01T08:47:16.067Z,17.62
2018-06-01T08:48:16.093Z,17.52
2018-06-01T08:49:16.120Z,17.81
2018-06-01T08:50:16.146Z,17.91
2018-06-01T08:51:16.176Z,18.01
2018-06-01T08:52:16.201Z,18.00
2018-06-01T08:53:16.229Z,17.81
2018-06-01T08:54:16.260Z,17.90
2018-06-01T08:55:16.304Z,17.81
2018-06-01T08:56:16.311Z,17.91
2018-06-01T08:57:16.339Z,17.90
2018-06-01T08:58:16.369Z,18.00
2018-06-01T08:59:16.434Z,18.10
2018-06-01T09:00:16.469Z,18.10
2018-06-01T09:01:16.451Z,18.00
2018-06-01T09:02:16.477Z,17.90
2018-06-01T09:03:16.506Z,17.90
2018-06-01T09:04:16.532Z,17.90
2018-06-01T09:05:16.560Z,18.00
2018-06-01T09:06:16.611Z,18.00
2018-06-01T09:07:16.616Z,17.90
2018-06-01T09:08:16.642Z,18.00
2018-06-01T09:09:16.672Z,17.90
2018-06-01T09:10:16.807Z,17.90
2018-06-01T09:11:16.726Z,18.00
2018-06-01T09:12:16.753Z,18.00
2018-06-01T09:13:16.780Z,17.90
2018-06-01T09:14:16.808Z,18.10
2018-06-01T09:15:16.835Z,18.00
2018-06-01T09:16:16.862Z,17.90
2018-06-01T09:17:16.890Z,17.90
2018-06-01T09:18:16.918Z,17.90
2018-06-01T09:19:16.945Z,17.90
2018-06-01T09:20:16.971Z,18.00
2018-06-01T09:21:17.017Z,17.90
2018-06-01T09:22:17.071Z,17.90
2018-06-01T09:23:17.057Z,18.19
2018-06-01T09:24:17.081Z,18.10
2018-06-01T09:25:17.110Z,18.10
2018-06-01T09:26:17.138Z,18.00
2018-06-01T09:27:17.165Z,18.00
2018-06-01T09:28:17.299Z,17.81
2018-06-01T09:29:17.254Z,18.00
2018-06-01T09:30:17.253Z,18.00
2018-06-01T09:31:17.275Z,18.00
2018-06-01T09:32:17.302Z,18.10
2018-06-01T09:33:17.329Z,18.10
2018-06-01T09:34:17.376Z,18.10
2018-06-01T09:35:17.385Z,17.81
2018-06-01T09:36:17.412Z,17.81
2018-06-01T09:37:17.475Z,17.90
2018-06-01T09:38:17.467Z,18.10
2018-06-01T09:39:17.494Z,17.90
2018-06-01T09:40:17.550Z,17.90
2018-06-01T09:41:17.574Z,17.71
2018-06-01T09:42:17.576Z,17.61
2018-06-01T09:43:17.605Z,17.71
2018-06-01T09:44:17.631Z,17.81
2018-06-01T09:45:17.696Z,17.71
2018-06-01T09:46:17.688Z,18.10
2018-06-01T09:47:17.714Z,18.59
2018-06-01T09:48:17.741Z,18.49
2018-06-01T09:49:17.769Z,18.29
2018-06-01T09:50:17.797Z,18.29
2018-06-01T09:51:17.825Z,18.29
2018-06-01T09:52:17.853Z,18.49
2018-06-01T09:53:17.879Z,18.49
2018-06-01T09:54:17.906Z,18.59
2018-06-01T09:55:17.936Z,18.49
2018-06-01T09:56:17.990Z,18.49
2018-06-01T09:57:18.018Z,18.39
2018-06-01T09:58:18.018Z,18.59
2018-06-01T09:59:18.047Z,18.59
2018-06-01T10:00:18.080Z,18.49
2018-06-01T10:01:18.098Z,18.39
2018-06-01T10:02:18.126Z,18.59
2018-06-01T10:03:18.159Z,18.59
2018-06-01T10:04:18.180Z,18.68
2018-06-01T10:05:18.208Z,18.59
2018-06-01T10:06:18.236Z,18.49
2018-06-01T10:07:18.268Z,18.59
2018-06-01T10:08:18.323Z,18.68
2018-06-01T10:09:18.350Z,18.59
2018-06-01T10:10:18.346Z,18.59
2018-06-01T10:11:18.390Z,18.68
2018-06-01T10:12:18.400Z,18.68
2018-06-01T10:13:18.434Z,18.68
2018-06-01T10:14:18.456Z,18.49
2018-06-01T10:15:18.482Z,18.59
2018-06-01T10:16:18.511Z,18.68
2018-06-01T10:17:18.574Z,18.68
2018-06-01T10:18:18.566Z,18.59
2018-06-01T10:19:18.593Z,18.59
2018-06-01T10:20:18.621Z,18.59
2018-06-01T10:21:18.647Z,18.59
2018-06-01T10:22:18.677Z,18.68
2018-06-01T10:23:18.703Z,18.59
2018-06-01T10:24:18.731Z,18.68
2018-06-01T10:25:18.763Z,18.77
2018-06-01T10:26:18.786Z,18.29
2018-06-01T10:27:18.814Z,18.68
2018-06-01T10:28:18.841Z,18.68
2018-06-01T10:29:18.870Z,18.68
2018-06-01T10:30:18.895Z,18.49
2018-06-01T10:31:18.923Z,18.39
2018-06-01T10:32:18.950Z,18.39
2018-06-01T10:33:18.977Z,18.59
2018-06-01T10:34:19.005Z,18.68
2018-06-01T10:35:19.035Z,18.59
2018-06-01T10:36:19.059Z,18.48
2018-06-01T10:37:19.088Z,18.48
2018-06-01T10:38:19.114Z,18.28
2018-06-01T10:39:19.143Z,18.57
2018-06-01T10:40:19.169Z,18.39
2018-06-01T10:41:19.196Z,18.57
2018-06-01T10:42:19.225Z,18.28
2018-06-01T10:43:19.252Z,18.48
2018-06-01T10:44:19.279Z,18.67
2018-06-01T10:45:19.321Z,18.59
2018-06-01T10:46:19.334Z,18.77
2018-06-01T10:47:19.362Z,18.68
2018-06-01T10:48:19.388Z,18.68
2018-06-01T10:49:19.416Z,18.59
2018-06-01T10:50:19.443Z,18.57
2018-06-01T10:51:19.472Z,18.59
2018-06-01T10:52:19.500Z,18.59
2018-06-01T10:53:19.532Z,18.49
2018-06-01T10:54:19.566Z,18.39
2018-06-01T10:55:19.581Z,18.59
2018-06-01T10:56:19.613Z,18.49
2018-06-01T10:57:19.676Z,18.39
2018-06-01T10:58:19.664Z,18.39
2018-06-01T10:59:19.691Z,18.49
2018-06-01T11:00:19.719Z,18.49
2018-06-01T11:01:19.745Z,18.49
2018-06-01T11:02:19.773Z,18.59
2018-06-01T11:03:19.800Z,18.59
2018-06-01T11:04:19.827Z,18.68
2018-06-01T11:05:19.864Z,18.49
2018-06-01T11:06:19.883Z,18.77
2018-06-01T11:07:19.910Z,18.68
2018-06-01T11:08:19.937Z,18.59
2018-06-01T11:09:19.972Z,18.59
2018-06-01T11:10:19.993Z,18.68
2018-06-01T11:11:20.020Z,18.39
2018-06-01T11:12:20.048Z,18.49
2018-06-01T11:13:20.075Z,18.49
2018-06-01T11:14:20.104Z,18.68
2018-06-01T11:15:20.133Z,18.77
2018-06-01T11:16:20.157Z,18.68
2018-06-01T11:17:20.185Z,18.68
2018-06-01T11:18:20.241Z,18.87
2018-06-01T11:19:20.253Z,19.17
2018-06-01T11:20:20.268Z,19.07
2018-06-01T11:21:20.309Z,18.97
2018-06-01T11:22:20.323Z,18.87
2018-06-01T11:23:20.351Z,18.77
2018-06-01T11:24:20.378Z,18.77
2018-06-01T11:25:20.405Z,18.87
2018-06-01T11:26:20.433Z,18.68
2018-06-01T11:27:20.493Z,18.77
2018-06-01T11:28:20.488Z,18.87
2018-06-01T11:29:20.537Z,18.77
2018-06-01T11:30:20.574Z,19.07
2018-06-01T11:31:20.573Z,19.07
2018-06-01T11:32:20.607Z,18.97
2018-06-01T11:33:20.625Z,18.77
2018-06-01T11:34:20.688Z,19.17
2018-06-01T11:35:20.681Z,19.17
2018-06-01T11:36:20.708Z,18.77
2018-06-01T11:37:20.739Z,19.45
2018-06-01T11:38:20.819Z,18.87
2018-06-01T11:39:20.792Z,19.26
2018-06-01T11:40:20.818Z,19.26
2018-06-01T11:41:20.845Z,19.17
2018-06-01T11:42:20.874Z,19.07
2018-06-01T11:43:20.901Z,19.35
2018-06-01T11:44:20.935Z,19.45
2018-06-01T11:45:20.956Z,19.35
2018-06-01T11:46:20.983Z,19.26
2018-06-01T11:47:21.012Z,19.17
2018-06-01T11:48:21.068Z,19.17
2018-06-01T11:49:21.105Z,19.17
2018-06-01T11:50:21.108Z,19.17
2018-06-01T11:51:21.143Z,19.17
2018-06-01T11:52:21.148Z,19.26
2018-06-01T11:53:21.177Z,19.27
2018-06-01T11:54:21.204Z,19.35
2018-06-01T11:55:21.232Z,19.37
2018-06-01T11:56:21.262Z,19.17
2018-06-01T11:57:21.303Z,19.35
2018-06-01T11:58:21.316Z,19.07
2018-06-01T11:59:21.342Z,19.37
2018-06-01T12:00:21.369Z,19.27
2018-06-01T12:01:21.431Z,19.37
2018-06-01T12:02:21.424Z,19.37
2018-06-01T12:03:21.452Z,19.17
2018-06-01T12:04:21.483Z,19.37
2018-06-01T12:05:21.507Z,19.17
2018-06-01T12:06:21.561Z,19.37
2018-06-01T12:07:21.563Z,19.37
2018-06-01T12:08:21.590Z,19.17
2018-06-01T12:09:21.618Z,19.17
2018-06-01T12:10:21.650Z,19.07
2018-06-01T12:11:21.681Z,19.27
2018-06-01T12:12:21.699Z,19.27
2018-06-01T12:13:21.728Z,19.37
2018-06-01T12:14:21.755Z,19.17
2018-06-01T12:15:21.784Z,19.17
2018-06-01T12:16:21.848Z,19.07
2018-06-01T12:17:21.839Z,19.37
2018-06-01T12:18:21.887Z,19.07
2018-06-01T12:19:21.894Z,19.27
2018-06-01T12:20:21.921Z,19.27
2018-06-01T12:21:21.949Z,19.07
2018-06-01T12:22:21.977Z,19.27
2018-06-01T12:23:22.005Z,19.37
2018-06-01T12:24:22.031Z,19.56
2018-06-01T12:25:22.079Z,19.07
2018-06-01T12:26:22.092Z,19.17
2018-06-01T12:27:22.115Z,19.27
2018-06-01T12:28:22.142Z,19.66
2018-06-01T12:29:22.191Z,19.56
2018-06-01T12:30:22.200Z,19.56
2018-06-01T12:31:22.226Z,19.37
2018-06-01T12:32:22.254Z,19.46
2018-06-01T12:33:22.281Z,19.27
2018-06-01T12:34:22.308Z,19.66
2018-06-01T12:35:22.336Z,19.46
2018-06-01T12:36:22.363Z,19.75
2018-06-01T12:37:22.391Z,19.75
2018-06-01T12:38:22.419Z,19.66
2018-06-01T12:39:22.489Z,19.75
2018-06-01T12:40:22.474Z,19.46
2018-06-01T12:41:22.501Z,19.56
2018-06-01T12:42:22.529Z,19.56
2018-06-01T12:43:22.558Z,19.56
2018-06-01T12:44:22.584Z,19.95
2018-06-01T12:45:22.662Z,19.85
2018-06-01T12:46:22.660Z,19.95
2018-06-01T12:47:22.668Z,20.24
2018-06-01T12:48:22.695Z,20.14
2018-06-01T12:49:22.723Z,20.14
2018-06-01T12:50:22.750Z,20.04
2018-06-01T12:51:22.784Z,20.14
2018-06-01T12:52:22.849Z,20.14
2018-06-01T12:53:22.836Z,20.14
2018-06-01T12:54:22.862Z,20.14
2018-06-01T12:55:22.889Z,20.04
2018-06-01T12:56:22.920Z,19.95
2018-06-01T12:57:22.944Z,19.46
2018-06-01T12:58:22.971Z,19.56
2018-06-01T12:59:23.000Z,19.56
2018-06-01T13:00:23.026Z,19.75
2018-06-01T13:01:23.058Z,19.56
2018-06-01T13:02:23.083Z,19.56
2018-06-01T13:03:23.131Z,19.46
2018-06-01T13:04:23.137Z,19.56
2018-06-01T13:05:23.165Z,19.66
2018-06-01T13:06:23.192Z,19.46
2018-06-01T13:07:23.220Z,19.66
2018-06-01T13:08:23.247Z,19.46
2018-06-01T13:09:23.276Z,19.66
2018-06-01T13:10:23.303Z,19.56
2018-06-01T13:11:23.340Z,19.75
2018-06-01T13:12:23.362Z,19.66
2018-06-01T13:13:23.386Z,19.66
2018-06-01T13:14:23.415Z,19.66
2018-06-01T13:15:23.442Z,19.75
2018-06-01T13:16:23.469Z,19.75
2018-06-01T13:17:23.496Z,19.75
2018-06-01T13:18:23.525Z,19.66
2018-06-01T13:19:23.552Z,19.75
2018-06-01T13:20:23.579Z,19.56
2018-06-01T13:21:23.607Z,19.56
2018-06-01T13:22:23.683Z,19.56
2018-06-01T13:23:23.672Z,19.66
2018-06-01T13:24:23.690Z,19.37
2018-06-01T13:25:23.726Z,19.38
2018-06-01T13:26:23.745Z,19.46
2018-06-01T13:27:23.777Z,19.46
2018-06-01T13:28:23.801Z,19.46
2018-06-01T13:29:23.830Z,19.37
2018-06-01T13:30:23.857Z,19.37
2018-06-01T13:31:23.885Z,19.27
2018-06-01T13:32:23.938Z,19.37
2018-06-01T13:33:23.940Z,19.46
2018-06-01T13:34:23.968Z,19.38
2018-06-01T13:35:24.001Z,19.37
2018-06-01T13:36:24.023Z,19.28
2018-06-01T13:37:24.051Z,19.67
2018-06-01T13:38:24.079Z,19.56
2018-06-01T13:39:24.107Z,19.57
2018-06-01T13:40:24.133Z,19.57
2018-06-01T13:41:24.161Z,19.57
2018-06-01T13:42:24.192Z,19.57
2018-06-01T13:43:24.218Z,19.47
2018-06-01T13:44:24.244Z,19.57
2018-06-01T13:45:24.272Z,19.57
2018-06-01T13:46:24.300Z,19.57
2018-06-01T13:47:24.328Z,19.47
2018-06-01T13:48:24.354Z,19.47
2018-06-01T13:49:24.421Z,19.47
2018-06-01T13:50:24.411Z,19.38
2018-06-01T13:51:24.439Z,19.76
2018-06-01T13:52:24.468Z,19.47
2018-06-01T13:53:24.494Z,19.67
2018-06-01T13:54:24.521Z,19.28
2018-06-01T13:55:24.550Z,19.47
2018-06-01T13:56:24.578Z,19.57
2018-06-01T13:57:24.605Z,19.76
2018-06-01T13:58:24.633Z,19.67
2018-06-01T13:59:24.664Z,19.67
2018-06-01T14:00:24.694Z,19.67
2018-06-01T14:01:24.718Z,19.67
2018-06-01T14:02:24.744Z,19.18
2018-06-01T14:03:24.772Z,19.67
2018-06-01T14:04:24.800Z,19.57
2018-06-01T14:05:24.827Z,19.67
2018-06-01T14:06:24.858Z,19.57
2018-06-01T14:07:24.883Z,19.18
2018-06-01T14:08:24.950Z,19.28
2018-06-01T14:09:24.958Z,19.28
2018-06-01T14:10:24.967Z,19.09
2018-06-01T14:11:25.038Z,19.18
2018-06-01T14:12:25.021Z,19.18
2018-06-01T14:13:25.049Z,19.28
2018-06-01T14:14:25.077Z,19.09
2018-06-01T14:15:25.104Z,19.18
2018-06-01T14:16:25.132Z,19.28
2018-06-01T14:17:25.160Z,19.18
2018-06-01T14:18:25.208Z,19.47
2018-06-01T14:19:25.254Z,19.28
2018-06-01T14:20:25.243Z,19.28
2018-06-01T14:21:25.271Z,19.18
2018-06-01T14:22:25.298Z,19.38
2018-06-01T14:23:25.326Z,19.18
2018-06-01T14:24:25.354Z,19.18
2018-06-01T14:25:25.382Z,19.18
2018-06-01T14:26:25.413Z,19.18